Picture Butte, Canada
Current Conditions -  °F | °C
As of 3:00 AM on Thursday 27 Nov 2014 (Local Time) from CYQL Reporting Station
Overcast Overcast  
Wind Chill: 21°   Ceiling: 15000
Heat Index: 27°   Visibility: 9mi
Dew Point: 27°   Wind: 5mph
Humidity: 100%   Direction: 60°ENE
Pressure: 29.81"   Gusts: NA
Location:  49.87°N, 112.78°W
Report Text: CYQL 271000Z AUTO 06004KT 9SM FEW120 OVC150 M03/M03 A2981 RMK SLP134
Loading
Personal Weather Stations






























Interactive Weather Map New forecast layout! Learn more

10-Day Weather Forecast

Advertisements
Track Severe Weather on mobile